sensor_id;sensor_type;location;lat;lon;timestamp;pressure;altitude;pressure_sealevel;temperature;humidity
74716;BME280;63234;37.558;127.058;2024-02-23T00:01:39;98278.00;;;6.50;71.42
74716;BME280;63234;37.558;127.058;2024-02-23T00:04:05;98303.38;;;6.51;70.86
74716;BME280;63234;37.558;127.058;2024-02-23T00:06:32;98317.06;;;6.64;69.75
74716;BME280;63234;37.558;127.058;2024-02-23T00:08:57;98308.75;;;6.73;68.78
74716;BME280;63234;37.558;127.058;2024-02-23T00:11:23;98310.75;;;6.65;70.07
74716;BME280;63234;37.558;127.058;2024-02-23T00:13:48;98301.78;;;6.66;69.44
74716;BME280;63234;37.558;127.058;2024-02-23T00:16:14;98303.06;;;6.64;70.25
74716;BME280;63234;37.558;127.058;2024-02-23T00:18:39;98294.25;;;6.58;70.34
74716;BME280;63234;37.558;127.058;2024-02-23T00:21:04;98297.13;;;6.57;70.82
74716;BME280;63234;37.558;127.058;2024-02-23T00:23:30;98297.59;;;6.54;71.49
74716;BME280;63234;37.558;127.058;2024-02-23T00:25:56;98286.25;;;6.53;71.37
74716;BME280;63234;37.558;127.058;2024-02-23T00:28:21;98290.41;;;6.49;71.76
74716;BME280;63234;37.558;127.058;2024-02-23T00:30:47;98293.53;;;6.46;72.20
74716;BME280;63234;37.558;127.058;2024-02-23T00:33:12;98302.81;;;6.49;71.76
74716;BME280;63234;37.558;127.058;2024-02-23T00:35:38;98315.19;;;6.48;72.68
74716;BME280;63234;37.558;127.058;2024-02-23T00:38:03;98321.31;;;6.49;73.46
74716;BME280;63234;37.558;127.058;2024-02-23T00:40:29;98335.94;;;6.56;72.82
74716;BME280;63234;37.558;127.058;2024-02-23T00:42:54;98359.53;;;6.46;73.85
74716;BME280;63234;37.558;127.058;2024-02-23T00:45:20;98351.69;;;6.34;75.69
74716;BME280;63234;37.558;127.058;2024-02-23T00:47:45;98340.38;;;5.93;77.64
74716;BME280;63234;37.558;127.058;2024-02-23T00:50:14;98333.00;;;5.95;78.94
74716;BME280;63234;37.558;127.058;2024-02-23T00:52:39;98326.38;;;5.93;78.64
74716;BME280;63234;37.558;127.058;2024-02-23T00:55:06;98324.91;;;5.73;78.51
74716;BME280;63234;37.558;127.058;2024-02-23T00:57:33;98318.72;;;5.68;77.94
74716;BME280;63234;37.558;127.058;2024-02-23T00:59:59;98327.34;;;5.63;78.85
74716;BME280;63234;37.558;127.058;2024-02-23T01:02:24;98326.78;;;5.61;78.07
74716;BME280;63234;37.558;127.058;2024-02-23T01:04:50;98342.81;;;5.60;77.71
74716;BME280;63234;37.558;127.058;2024-02-23T01:07:15;98359.69;;;5.59;78.45
74716;BME280;63234;37.558;127.058;2024-02-23T01:09:40;98371.03;;;5.59;77.89
74716;BME280;63234;37.558;127.058;2024-02-23T01:12:06;98373.66;;;5.59;78.28
74716;BME280;63234;37.558;127.058;2024-02-23T01:14:32;98384.00;;;5.49;78.49
74716;BME280;63234;37.558;127.058;2024-02-23T01:16:57;98384.13;;;5.54;78.32
74716;BME280;63234;37.558;127.058;2024-02-23T01:19:22;98377.78;;;5.67;76.85
74716;BME280;63234;37.558;127.058;2024-02-23T01:21:49;98384.75;;;5.85;74.00
74716;BME280;63234;37.558;127.058;2024-02-23T01:24:20;98388.72;;;5.87;75.61
74716;BME280;63234;37.558;127.058;2024-02-23T01:26:46;98387.47;;;5.90;74.71
74716;BME280;63234;37.558;127.058;2024-02-23T01:29:11;98413.06;;;5.89;75.58
74716;BME280;63234;37.558;127.058;2024-02-23T01:31:36;98403.09;;;5.91;74.14
74716;BME280;63234;37.558;127.058;2024-02-23T01:34:02;98405.03;;;5.96;73.12
74716;BME280;63234;37.558;127.058;2024-02-23T01:36:27;98410.22;;;6.03;73.23
74716;BME280;63234;37.558;127.058;2024-02-23T01:38:52;98406.09;;;5.95;72.91
74716;BME280;63234;37.558;127.058;2024-02-23T01:41:18;98408.16;;;5.93;73.07
74716;BME280;63234;37.558;127.058;2024-02-23T01:43:43;98409.16;;;5.92;72.48
74716;BME280;63234;37.558;127.058;2024-02-23T01:46:08;98414.00;;;5.95;72.32
74716;BME280;63234;37.558;127.058;2024-02-23T01:48:34;98404.34;;;6.01;71.29
74716;BME280;63234;37.558;127.058;2024-02-23T01:51:00;98406.66;;;5.85;71.08
74716;BME280;63234;37.558;127.058;2024-02-23T01:53:25;98403.69;;;5.82;70.12
74716;BME280;63234;37.558;127.058;2024-02-23T01:55:53;98404.22;;;5.84;70.84
74716;BME280;63234;37.558;127.058;2024-02-23T01:58:19;98406.66;;;5.85;69.83
74716;BME280;63234;37.558;127.058;2024-02-23T02:00:45;98408.72;;;5.83;69.36
74716;BME280;63234;37.558;127.058;2024-02-23T02:03:10;98410.91;;;5.74;71.24
74716;BME280;63234;37.558;127.058;2024-02-23T02:05:36;98410.41;;;5.89;70.01
74716;BME280;63234;37.558;127.058;2024-02-23T02:08:02;98398.75;;;5.97;68.25
74716;BME280;63234;37.558;127.058;2024-02-23T02:10:28;98398.16;;;5.95;68.86
74716;BME280;63234;37.558;127.058;2024-02-23T02:12:53;98394.00;;;5.87;68.01
74716;BME280;63234;37.558;127.058;2024-02-23T02:15:19;98391.94;;;5.89;69.31
74716;BME280;63234;37.558;127.058;2024-02-23T02:17:47;98401.94;;;5.87;68.28
74716;BME280;63234;37.558;127.058;2024-02-23T02:20:13;98393.22;;;5.87;67.61
74716;BME280;63234;37.558;127.058;2024-02-23T02:22:39;98395.78;;;5.82;67.59
74716;BME280;63234;37.558;127.058;2024-02-23T02:25:05;98393.47;;;5.85;67.16
74716;BME280;63234;37.558;127.058;2024-02-23T02:27:31;98388.72;;;5.87;66.39
74716;BME280;63234;37.558;127.058;2024-02-23T02:29:56;98378.66;;;5.84;66.42
74716;BME280;63234;37.558;127.058;2024-02-23T02:32:23;98396.31;;;5.84;66.00
74716;BME280;63234;37.558;127.058;2024-02-23T02:34:48;98377.84;;;5.84;64.86
74716;BME280;63234;37.558;127.058;2024-02-23T02:37:14;98379.22;;;5.86;64.12
74716;BME280;63234;37.558;127.058;2024-02-23T02:39:39;98368.22;;;5.78;65.13
74716;BME280;63234;37.558;127.058;2024-02-23T02:42:04;98381.19;;;5.79;65.24
74716;BME280;63234;37.558;127.058;2024-02-23T02:44:30;98365.25;;;5.86;64.52
74716;BME280;63234;37.558;127.058;2024-02-23T02:46:56;98368.81;;;5.80;64.26
74716;BME280;63234;37.558;127.058;2024-02-23T02:49:22;98366.53;;;5.60;66.18
74716;BME280;63234;37.558;127.058;2024-02-23T02:51:47;98365.66;;;5.54;66.21
74716;BME280;63234;37.558;127.058;2024-02-23T02:54:13;98364.63;;;5.55;66.11
74716;BME280;63234;37.558;127.058;2024-02-23T02:56:45;98361.06;;;5.49;65.09
74716;BME280;63234;37.558;127.058;2024-02-23T02:59:11;98349.94;;;5.47;65.33
74716;BME280;63234;37.558;127.058;2024-02-23T03:01:37;98351.69;;;5.42;64.67
74716;BME280;63234;37.558;127.058;2024-02-23T03:04:02;98351.44;;;5.32;64.59
74716;BME280;63234;37.558;127.058;2024-02-23T03:06:28;98343.22;;;5.28;64.63
74716;BME280;63234;37.558;127.058;2024-02-23T03:08:53;98347.91;;;5.38;63.23
74716;BME280;63234;37.558;127.058;2024-02-23T03:11:18;98345.16;;;5.33;63.82
74716;BME280;63234;37.558;127.058;2024-02-23T03:13:44;98346.88;;;5.39;62.48
74716;BME280;63234;37.558;127.058;2024-02-23T03:16:16;98337.47;;;5.31;62.28
74716;BME280;63234;37.558;127.058;2024-02-23T03:18:42;98328.53;;;5.20;63.56
74716;BME280;63234;37.558;127.058;2024-02-23T03:21:07;98340.25;;;5.24;63.21
74716;BME280;63234;37.558;127.058;2024-02-23T03:23:34;98334.97;;;5.24;63.54
74716;BME280;63234;37.558;127.058;2024-02-23T03:26:00;98326.59;;;5.27;62.83
74716;BME280;63234;37.558;127.058;2024-02-23T03:28:25;98331.88;;;5.27;62.81
74716;BME280;63234;37.558;127.058;2024-02-23T03:30:50;98320.75;;;5.14;63.80
74716;BME280;63234;37.558;127.058;2024-02-23T03:33:16;98331.06;;;5.15;63.91
74716;BME280;63234;37.558;127.058;2024-02-23T03:35:41;98336.56;;;5.14;64.11
74716;BME280;63234;37.558;127.058;2024-02-23T03:38:06;98340.91;;;5.08;65.01
74716;BME280;63234;37.558;127.058;2024-02-23T03:40:32;98352.59;;;5.00;65.74
74716;BME280;63234;37.558;127.058;2024-02-23T03:42:57;98345.38;;;4.96;66.51
74716;BME280;63234;37.558;127.058;2024-02-23T03:45:22;98343.44;;;4.91;66.82
74716;BME280;63234;37.558;127.058;2024-02-23T03:47:48;98338.97;;;4.92;67.68
74716;BME280;63234;37.558;127.058;2024-02-23T03:50:13;98348.56;;;4.86;69.09
74716;BME280;63234;37.558;127.058;2024-02-23T03:52:38;98351.09;;;4.93;68.28
74716;BME280;63234;37.558;127.058;2024-02-23T03:55:04;98348.69;;;4.91;68.66
74716;BME280;63234;37.558;127.058;2024-02-23T03:57:30;98357.66;;;4.90;68.32
74716;BME280;63234;37.558;127.058;2024-02-23T03:59:57;98345.59;;;4.82;69.07
74716;BME280;63234;37.558;127.058;2024-02-23T04:02:22;98352.47;;;4.83;68.97
74716;BME280;63234;37.558;127.058;2024-02-23T04:04:48;98348.94;;;4.78;69.04
74716;BME280;63234;37.558;127.058;2024-02-23T04:07:13;98344.78;;;4.70;68.37
74716;BME280;63234;37.558;127.058;2024-02-23T04:09:38;98343.28;;;4.74;68.54
74716;BME280;63234;37.558;127.058;2024-02-23T04:12:04;98344.41;;;4.55;69.57
74716;BME280;63234;37.558;127.058;2024-02-23T04:14:29;98337.16;;;4.50;69.30
74716;BME280;63234;37.558;127.058;2024-02-23T04:16:54;98347.69;;;4.50;69.21
74716;BME280;63234;37.558;127.058;2024-02-23T04:19:20;98332.91;;;4.37;69.19
74716;BME280;63234;37.558;127.058;2024-02-23T04:21:45;98351.38;;;4.49;69.05
74716;BME280;63234;37.558;127.058;2024-02-23T04:24:10;98341.63;;;4.50;68.29
74716;BME280;63234;37.558;127.058;2024-02-23T04:26:36;98351.47;;;4.43;68.92
74716;BME280;63234;37.558;127.058;2024-02-23T04:29:01;98337.47;;;4.30;70.38
74716;BME280;63234;37.558;127.058;2024-02-23T04:31:26;98340.25;;;4.35;68.38
74716;BME280;63234;37.558;127.058;2024-02-23T04:33:51;98346.88;;;4.38;69.05
74716;BME280;63234;37.558;127.058;2024-02-23T04:36:19;98339.41;;;4.23;69.97
74716;BME280;63234;37.558;127.058;2024-02-23T04:38:46;98355.59;;;4.08;70.29
74716;BME280;63234;37.558;127.058;2024-02-23T04:41:11;98355.44;;;4.03;70.17
74716;BME280;63234;37.558;127.058;2024-02-23T04:43:37;98358.75;;;3.99;69.95
74716;BME280;63234;37.558;127.058;2024-02-23T04:46:02;98362.03;;;3.94;70.86
74716;BME280;63234;37.558;127.058;2024-02-23T04:48:27;98364.13;;;4.04;70.92
74716;BME280;63234;37.558;127.058;2024-02-23T04:50:53;98360.31;;;4.18;68.06
74716;BME280;63234;37.558;127.058;2024-02-23T04:53:19;98364.44;;;4.26;68.06
74716;BME280;63234;37.558;127.058;2024-02-23T04:55:44;98368.28;;;4.42;67.75
74716;BME280;63234;37.558;127.058;2024-02-23T04:58:10;98366.38;;;4.49;67.54
74716;BME280;63234;37.558;127.058;2024-02-23T05:00:37;98369.25;;;4.59;67.33
74716;BME280;63234;37.558;127.058;2024-02-23T05:03:02;98361.25;;;4.54;67.33
74716;BME280;63234;37.558;127.058;2024-02-23T05:05:32;98367.78;;;4.63;67.29
74716;BME280;63234;37.558;127.058;2024-02-23T05:07:58;98358.06;;;4.64;66.94
74716;BME280;63234;37.558;127.058;2024-02-23T05:10:24;98357.59;;;4.67;66.65
74716;BME280;63234;37.558;127.058;2024-02-23T05:12:50;98358.41;;;4.67;67.55
74716;BME280;63234;37.558;127.058;2024-02-23T05:15:15;98350.84;;;4.71;66.77
74716;BME280;63234;37.558;127.058;2024-02-23T05:17:41;98352.00;;;4.63;66.96
74716;BME280;63234;37.558;127.058;2024-02-23T05:20:07;98350.97;;;4.76;66.04
74716;BME280;63234;37.558;127.058;2024-02-23T05:22:38;98351.63;;;4.71;66.45
74716;BME280;63234;37.558;127.058;2024-02-23T05:25:04;98351.28;;;4.68;67.89
74716;BME280;63234;37.558;127.058;2024-02-23T05:27:30;98351.19;;;4.63;67.91
74716;BME280;63234;37.558;127.058;2024-02-23T05:29:56;98343.97;;;4.58;67.94
74716;BME280;63234;37.558;127.058;2024-02-23T05:32:21;98341.78;;;4.55;67.60
74716;BME280;63234;37.558;127.058;2024-02-23T05:34:46;98340.50;;;4.46;68.30
74716;BME280;63234;37.558;127.058;2024-02-23T05:37:16;98354.69;;;4.45;67.61
74716;BME280;63234;37.558;127.058;2024-02-23T05:39:41;98360.50;;;4.47;67.17
74716;BME280;63234;37.558;127.058;2024-02-23T05:42:07;98350.31;;;4.39;67.57
74716;BME280;63234;37.558;127.058;2024-02-23T05:44:32;98359.69;;;4.34;68.12
74716;BME280;63234;37.558;127.058;2024-02-23T05:46:58;98354.06;;;4.31;67.69
74716;BME280;63234;37.558;127.058;2024-02-23T05:49:23;98357.13;;;4.28;68.38
74716;BME280;63234;37.558;127.058;2024-02-23T05:51:49;98358.66;;;4.35;67.57
74716;BME280;63234;37.558;127.058;2024-02-23T05:54:14;98365.63;;;4.30;68.05
74716;BME280;63234;37.558;127.058;2024-02-23T05:56:40;98354.06;;;4.31;67.75
74716;BME280;63234;37.558;127.058;2024-02-23T05:59:05;98356.19;;;4.22;68.54
74716;BME280;63234;37.558;127.058;2024-02-23T06:01:31;98358.56;;;4.12;70.08
74716;BME280;63234;37.558;127.058;2024-02-23T06:03:57;98352.41;;;4.18;70.21
74716;BME280;63234;37.558;127.058;2024-02-23T06:06:22;98344.84;;;4.10;70.79
74716;BME280;63234;37.558;127.058;2024-02-23T06:08:47;98352.97;;;4.08;72.74
74716;BME280;63234;37.558;127.058;2024-02-23T06:11:14;98351.13;;;4.09;74.20
74716;BME280;63234;37.558;127.058;2024-02-23T06:13:40;98353.53;;;4.10;75.31
74716;BME280;63234;37.558;127.058;2024-02-23T06:16:09;98355.69;;;4.02;76.11
74716;BME280;63234;37.558;127.058;2024-02-23T06:18:35;98354.50;;;3.98;77.44
74716;BME280;63234;37.558;127.058;2024-02-23T06:21:01;98353.06;;;4.02;78.61
74716;BME280;63234;37.558;127.058;2024-02-23T06:23:27;98353.19;;;3.88;79.76
74716;BME280;63234;37.558;127.058;2024-02-23T06:25:52;98358.97;;;3.97;80.60
74716;BME280;63234;37.558;127.058;2024-02-23T06:28:18;98360.78;;;3.97;80.98
74716;BME280;63234;37.558;127.058;2024-02-23T06:30:43;98356.41;;;3.90;81.57
74716;BME280;63234;37.558;127.058;2024-02-23T06:33:09;98359.50;;;3.87;81.85
74716;BME280;63234;37.558;127.058;2024-02-23T06:35:34;98349.13;;;3.93;82.35
74716;BME280;63234;37.558;127.058;2024-02-23T06:37:59;98355.75;;;3.95;82.22
74716;BME280;63234;37.558;127.058;2024-02-23T06:40:25;98354.59;;;3.91;82.64
74716;BME280;63234;37.558;127.058;2024-02-23T06:42:50;98352.59;;;3.86;83.28
74716;BME280;63234;37.558;127.058;2024-02-23T06:45:16;98348.03;;;3.82;83.70
74716;BME280;63234;37.558;127.058;2024-02-23T06:47:41;98343.56;;;3.82;83.56
74716;BME280;63234;37.558;127.058;2024-02-23T06:50:07;98348.53;;;3.90;83.08
74716;BME280;63234;37.558;127.058;2024-02-23T06:52:33;98349.63;;;3.83;83.65
74716;BME280;63234;37.558;127.058;2024-02-23T06:54:59;98345.31;;;3.88;82.98
74716;BME280;63234;37.558;127.058;2024-02-23T06:57:24;98350.56;;;3.88;83.00
74716;BME280;63234;37.558;127.058;2024-02-23T06:59:51;98353.00;;;3.90;82.53
74716;BME280;63234;37.558;127.058;2024-02-23T07:02:16;98349.53;;;3.89;82.66
74716;BME280;63234;37.558;127.058;2024-02-23T07:04:42;98356.63;;;3.89;82.45
74716;BME280;63234;37.558;127.058;2024-02-23T07:07:07;98362.25;;;3.93;81.70
74716;BME280;63234;37.558;127.058;2024-02-23T07:09:34;98369.28;;;3.99;81.50
74716;BME280;63234;37.558;127.058;2024-02-23T07:12:00;98365.75;;;4.05;81.11
74716;BME280;63234;37.558;127.058;2024-02-23T07:14:25;98375.94;;;4.13;80.80
74716;BME280;63234;37.558;127.058;2024-02-23T07:16:50;98377.69;;;4.19;80.47
74716;BME280;63234;37.558;127.058;2024-02-23T07:19:18;98375.06;;;4.19;79.61
74716;BME280;63234;37.558;127.058;2024-02-23T07:21:45;98372.94;;;4.28;79.48
74716;BME280;63234;37.558;127.058;2024-02-23T07:24:10;98375.56;;;4.28;79.28
74716;BME280;63234;37.558;127.058;2024-02-23T07:26:36;98374.31;;;4.30;78.74
74716;BME280;63234;37.558;127.058;2024-02-23T07:29:01;98373.63;;;4.35;78.89
74716;BME280;63234;37.558;127.058;2024-02-23T07:31:27;98363.25;;;4.40;78.58
74716;BME280;63234;37.558;127.058;2024-02-23T07:33:52;98368.66;;;4.45;78.40
74716;BME280;63234;37.558;127.058;2024-02-23T07:36:17;98380.91;;;4.51;77.60
74716;BME280;63234;37.558;127.058;2024-02-23T07:38:43;98374.97;;;4.56;77.00
74716;BME280;63234;37.558;127.058;2024-02-23T07:41:10;98362.59;;;4.56;76.79
74716;BME280;63234;37.558;127.058;2024-02-23T07:43:35;98367.19;;;4.61;76.16
74716;BME280;63234;37.558;127.058;2024-02-23T07:46:01;98358.25;;;4.62;76.17
74716;BME280;63234;37.558;127.058;2024-02-23T07:48:27;98357.50;;;4.73;75.72
74716;BME280;63234;37.558;127.058;2024-02-23T07:50:53;98350.41;;;4.86;75.26
74716;BME280;63234;37.558;127.058;2024-02-23T07:53:18;98351.34;;;5.03;74.41
74716;BME280;63234;37.558;127.058;2024-02-23T07:55:43;98354.66;;;5.22;73.90
74716;BME280;63234;37.558;127.058;2024-02-23T07:58:09;98363.03;;;5.31;74.26
74716;BME280;63234;37.558;127.058;2024-02-23T08:00:34;98359.03;;;5.40;73.15
74716;BME280;63234;37.558;127.058;2024-02-23T08:03:03;98360.84;;;5.39;72.71
74716;BME280;63234;37.558;127.058;2024-02-23T08:05:28;98369.22;;;5.48;72.78
74716;BME280;63234;37.558;127.058;2024-02-23T08:07:53;98372.75;;;5.53;72.64
74716;BME280;63234;37.558;127.058;2024-02-23T08:10:19;98372.66;;;5.60;72.31
74716;BME280;63234;37.558;127.058;2024-02-23T08:12:44;98374.81;;;5.51;72.65
74716;BME280;63234;37.558;127.058;2024-02-23T08:15:10;98375.97;;;5.56;73.31
74716;BME280;63234;37.558;127.058;2024-02-23T08:17:35;98381.34;;;5.61;72.99
74716;BME280;63234;37.558;127.058;2024-02-23T08:20:01;98370.47;;;5.57;73.36
74716;BME280;63234;37.558;127.058;2024-02-23T08:22:26;98372.06;;;5.46;72.18
74716;BME280;63234;37.558;127.058;2024-02-23T08:24:51;98364.03;;;5.53;72.90
74716;BME280;63234;37.558;127.058;2024-02-23T08:27:17;98370.22;;;5.59;72.30
74716;BME280;63234;37.558;127.058;2024-02-23T08:29:42;98377.34;;;5.58;72.39
74716;BME280;63234;37.558;127.058;2024-02-23T08:32:07;98380.19;;;5.68;71.89
74716;BME280;63234;37.558;127.058;2024-02-23T08:34:33;98386.63;;;5.72;72.09
74716;BME280;63234;37.558;127.058;2024-02-23T08:37:00;98373.44;;;5.72;71.48
74716;BME280;63234;37.558;127.058;2024-02-23T08:39:25;98381.75;;;5.81;71.00
74716;BME280;63234;37.558;127.058;2024-02-23T08:41:52;98377.31;;;5.70;70.94
74716;BME280;63234;37.558;127.058;2024-02-23T08:44:18;98372.38;;;5.73;71.28
74716;BME280;63234;37.558;127.058;2024-02-23T08:46:43;98381.34;;;5.72;71.63
74716;BME280;63234;37.558;127.058;2024-02-23T08:49:09;98369.97;;;5.72;70.84
74716;BME280;63234;37.558;127.058;2024-02-23T08:51:34;98375.19;;;6.36;69.07
74716;BME280;63234;37.558;127.058;2024-02-23T08:53:59;98375.91;;;6.94;68.09
74716;BME280;63234;37.558;127.058;2024-02-23T08:56:29;98376.75;;;7.72;65.95
74716;BME280;63234;37.558;127.058;2024-02-23T08:58:54;98375.25;;;7.98;64.27
74716;BME280;63234;37.558;127.058;2024-02-23T09:01:20;98370.63;;;7.10;65.81
74716;BME280;63234;37.558;127.058;2024-02-23T09:03:45;98369.19;;;6.86;67.21
74716;BME280;63234;37.558;127.058;2024-02-23T09:06:10;98362.47;;;6.95;67.27
74716;BME280;63234;37.558;127.058;2024-02-23T09:08:36;98368.47;;;6.74;66.73
74716;BME280;63234;37.558;127.058;2024-02-23T09:11:01;98372.16;;;7.45;65.73
74716;BME280;63234;37.558;127.058;2024-02-23T09:13:27;98361.56;;;8.06;65.03
74716;BME280;63234;37.558;127.058;2024-02-23T09:15:55;98356.22;;;7.79;63.75
74716;BME280;63234;37.558;127.058;2024-02-23T09:18:20;98342.84;;;7.91;63.91
74716;BME280;63234;37.558;127.058;2024-02-23T09:20:45;98336.38;;;7.38;65.01
74716;BME280;63234;37.558;127.058;2024-02-23T09:23:11;98325.50;;;8.00;64.07
74716;BME280;63234;37.558;127.058;2024-02-23T09:25:37;98330.97;;;8.42;63.11
74716;BME280;63234;37.558;127.058;2024-02-23T09:28:03;98323.69;;;8.87;62.26
74716;BME280;63234;37.558;127.058;2024-02-23T09:30:28;98320.91;;;8.71;62.08
74716;BME280;63234;37.558;127.058;2024-02-23T09:32:54;98324.19;;;8.84;61.69
74716;BME280;63234;37.558;127.058;2024-02-23T09:35:19;98316.88;;;8.64;61.43
74716;BME280;63234;37.558;127.058;2024-02-23T09:37:45;98311.94;;;8.78;61.88
74716;BME280;63234;37.558;127.058;2024-02-23T09:40:11;98314.31;;;9.11;60.61
74716;BME280;63234;37.558;127.058;2024-02-23T09:42:36;98318.03;;;8.78;59.52
74716;BME280;63234;37.558;127.058;2024-02-23T09:45:05;98317.19;;;9.05;59.54
74716;BME280;63234;37.558;127.058;2024-02-23T09:47:32;98329.13;;;9.07;59.23
74716;BME280;63234;37.558;127.058;2024-02-23T09:49:59;98325.56;;;8.91;59.45
74716;BME280;63234;37.558;127.058;2024-02-23T09:52:25;98331.00;;;9.12;59.30
74716;BME280;63234;37.558;127.058;2024-02-23T09:54:54;98333.63;;;8.42;59.21
74716;BME280;63234;37.558;127.058;2024-02-23T09:57:20;98332.72;;;8.91;60.01
74716;BME280;63234;37.558;127.058;2024-02-23T09:59:48;98333.84;;;9.00;58.54
74716;BME280;63234;37.558;127.058;2024-02-23T10:02:17;98338.41;;;8.72;59.56
74716;BME280;63234;37.558;127.058;2024-02-23T10:04:43;98331.81;;;8.75;58.93
74716;BME280;63234;37.558;127.058;2024-02-23T10:07:09;98337.53;;;8.62;59.08
74716;BME280;63234;37.558;127.058;2024-02-23T10:09:36;98330.81;;;8.27;60.23
74716;BME280;63234;37.558;127.058;2024-02-23T10:12:02;98330.81;;;8.27;61.25
74716;BME280;63234;37.558;127.058;2024-02-23T10:14:28;98334.19;;;9.56;58.53
74716;BME280;63234;37.558;127.058;2024-02-23T10:16:53;98329.44;;;10.52;54.74
74716;BME280;63234;37.558;127.058;2024-02-23T10:19:20;98331.31;;;10.87;52.72
74716;BME280;63234;37.558;127.058;2024-02-23T10:21:46;98328.66;;;11.02;51.53
74716;BME280;63234;37.558;127.058;2024-02-23T10:24:12;98325.72;;;10.89;51.85
74716;BME280;63234;37.558;127.058;2024-02-23T10:26:37;98316.72;;;10.59;52.46
74716;BME280;63234;37.558;127.058;2024-02-23T10:29:03;98314.84;;;10.44;52.97
74716;BME280;63234;37.558;127.058;2024-02-23T10:31:32;98315.63;;;10.50;53.43
74716;BME280;63234;37.558;127.058;2024-02-23T10:33:59;98311.38;;;10.49;52.86
74716;BME280;63234;37.558;127.058;2024-02-23T10:36:27;98314.56;;;10.82;51.63
74716;BME280;63234;37.558;127.058;2024-02-23T10:38:56;98322.41;;;11.58;50.77
74716;BME280;63234;37.558;127.058;2024-02-23T10:41:24;98313.91;;;11.46;49.83
74716;BME280;63234;37.558;127.058;2024-02-23T10:43:51;98319.78;;;11.43;50.16
74716;BME280;63234;37.558;127.058;2024-02-23T10:46:18;98320.66;;;11.98;49.12
74716;BME280;63234;37.558;127.058;2024-02-23T10:48:45;98320.56;;;11.43;49.68
74716;BME280;63234;37.558;127.058;2024-02-23T10:51:12;98310.72;;;12.14;50.44
74716;BME280;63234;37.558;127.058;2024-02-23T10:53:39;98313.09;;;13.47;45.96
74716;BME280;63234;37.558;127.058;2024-02-23T10:56:07;98316.13;;;12.43;47.00
74716;BME280;63234;37.558;127.058;2024-02-23T10:58:32;98314.94;;;11.60;49.75
74716;BME280;63234;37.558;127.058;2024-02-23T11:01:03;98322.28;;;10.78;50.71
74716;BME280;63234;37.558;127.058;2024-02-23T11:03:32;98310.47;;;11.40;50.16
74716;BME280;63234;37.558;127.058;2024-02-23T11:06:08;98312.00;;;12.27;48.04
74716;BME280;63234;37.558;127.058;2024-02-23T11:08:34;98306.75;;;12.11;48.25
74716;BME280;63234;37.558;127.058;2024-02-23T11:11:11;98307.63;;;11.06;49.72
74716;BME280;63234;37.558;127.058;2024-02-23T11:13:37;98310.31;;;10.86;51.14
74716;BME280;63234;37.558;127.058;2024-02-23T11:16:07;98309.75;;;11.04;50.32
74716;BME280;63234;37.558;127.058;2024-02-23T11:18:36;98305.00;;;10.96;51.32
74716;BME280;63234;37.558;127.058;2024-02-23T11:21:04;98301.28;;;10.87;51.57
74716;BME280;63234;37.558;127.058;2024-02-23T11:23:43;98300.09;;;12.09;49.01
74716;BME280;63234;37.558;127.058;2024-02-23T11:26:10;98298.25;;;11.39;50.43
74716;BME280;63234;37.558;127.058;2024-02-23T11:29:09;98287.69;;;11.84;49.51
74716;BME280;63234;37.558;127.058;2024-02-23T11:31:35;98286.16;;;12.22;47.74
74716;BME280;63234;37.558;127.058;2024-02-23T11:34:00;98297.91;;;11.56;49.58
74716;BME280;63234;37.558;127.058;2024-02-23T11:36:30;98288.69;;;11.98;49.60
74716;BME280;63234;37.558;127.058;2024-02-23T11:38:58;98286.44;;;12.89;47.66
74716;BME280;63234;37.558;127.058;2024-02-23T11:41:24;98297.91;;;12.55;46.90
74716;BME280;63234;37.558;127.058;2024-02-23T11:43:54;98281.84;;;13.24;46.32
74716;BME280;63234;37.558;127.058;2024-02-23T11:46:21;98283.00;;;12.54;46.88
74716;BME280;63234;37.558;127.058;2024-02-23T11:48:47;98294.78;;;11.39;48.34
74716;BME280;63234;37.558;127.058;2024-02-23T11:51:21;98286.91;;;10.93;50.46
74716;BME280;63234;37.558;127.058;2024-02-23T11:53:48;98288.78;;;10.56;49.79
74716;BME280;63234;37.558;127.058;2024-02-23T11:56:14;98298.09;;;10.74;50.37
74716;BME280;63234;37.558;127.058;2024-02-23T11:58:40;98287.44;;;10.85;50.90
74716;BME280;63234;37.558;127.058;2024-02-23T12:01:05;98281.00;;;11.16;49.64
74716;BME280;63234;37.558;127.058;2024-02-23T12:03:32;98279.47;;;10.85;48.10
74716;BME280;63234;37.558;127.058;2024-02-23T12:05:58;98275.72;;;10.86;47.50
74716;BME280;63234;37.558;127.058;2024-02-23T12:08:28;98267.25;;;10.63;50.56
74716;BME280;63234;37.558;127.058;2024-02-23T12:10:55;98280.56;;;10.48;47.34
74716;BME280;63234;37.558;127.058;2024-02-23T12:13:20;98276.28;;;10.37;47.94
74716;BME280;63234;37.558;127.058;2024-02-23T12:15:47;98288.75;;;10.31;48.71
74716;BME280;63234;37.558;127.058;2024-02-23T12:18:13;98280.22;;;10.14;48.86
74716;BME280;63234;37.558;127.058;2024-02-23T12:20:40;98283.41;;;10.21;49.13
74716;BME280;63234;37.558;127.058;2024-02-23T12:23:05;98276.75;;;10.18;48.11
74716;BME280;63234;37.558;127.058;2024-02-23T12:25:32;98279.44;;;10.23;48.28
74716;BME280;63234;37.558;127.058;2024-02-23T12:27:58;98274.44;;;10.32;47.04
74716;BME280;63234;37.558;127.058;2024-02-23T12:30:25;98264.34;;;10.39;46.91
74716;BME280;63234;37.558;127.058;2024-02-23T12:32:51;98269.91;;;10.43;44.99
74716;BME280;63234;37.558;127.058;2024-02-23T12:35:17;98272.81;;;10.62;46.33
74716;BME280;63234;37.558;127.058;2024-02-23T12:37:43;98260.88;;;10.64;45.12
74716;BME280;63234;37.558;127.058;2024-02-23T12:40:10;98273.63;;;10.52;45.49
74716;BME280;63234;37.558;127.058;2024-02-23T12:42:36;98259.53;;;11.73;45.53